createdAt,value
2022-07-29T00:09:30.830Z,20.37
2022-07-29T00:20:28.474Z,20.24
2022-07-29T00:31:30.054Z,20.34
2022-07-29T00:42:31.090Z,20.37
2022-07-29T00:53:32.590Z,20.30
2022-07-29T01:04:33.945Z,20.26
2022-07-29T01:15:30.068Z,20.26
2022-07-29T01:26:32.537Z,20.23
2022-07-29T01:37:33.593Z,20.26
2022-07-29T01:48:34.839Z,20.18
2022-07-29T01:59:36.173Z,20.06
2022-07-29T02:10:38.370Z,19.97
2022-07-29T02:21:39.320Z,19.63
2022-07-29T02:32:29.042Z,19.61
2022-07-29T02:43:29.511Z,19.35
2022-07-29T02:54:26.446Z,19.18
2022-07-29T03:05:24.335Z,18.99
2022-07-29T03:16:28.521Z,18.86
2022-07-29T03:27:30.168Z,18.76
2022-07-29T03:38:30.309Z,18.67
2022-07-29T03:49:31.654Z,18.49
2022-07-29T04:00:33.507Z,18.58
2022-07-29T04:11:33.445Z,18.49
2022-07-29T04:22:39.618Z,18.55
2022-07-29T04:33:36.917Z,18.62
2022-07-29T04:44:17.531Z,18.68
2022-07-29T04:55:14.848Z,18.98
2022-07-29T05:06:14.758Z,19.32
2022-07-29T05:16:52.191Z,19.46
2022-07-29T05:27:53.278Z,19.68
2022-07-29T05:38:52.665Z,19.97
2022-07-29T05:49:53.432Z,20.31
2022-07-29T06:00:46.889Z,20.56
2022-07-29T06:11:47.996Z,21.05
2022-07-29T06:22:49.470Z,21.46
2022-07-29T06:33:51.524Z,22.19
2022-07-29T06:44:55.269Z,22.69
2022-07-29T06:55:47.809Z,23.04
2022-07-29T07:06:47.433Z,23.24
2022-07-29T07:17:44.020Z,23.98
2022-07-29T07:28:39.961Z,24.45
2022-07-29T07:39:38.611Z,24.64
2022-07-29T07:50:38.782Z,25.19
2022-07-29T08:01:24.572Z,25.52
2022-07-29T08:11:58.646Z,25.49
2022-07-29T08:22:53.928Z,26.32
2022-07-29T08:33:50.360Z,26.62
2022-07-29T08:44:47.456Z,27.16
2022-07-29T08:55:44.949Z,27.95
2022-07-29T09:06:39.104Z,28.20
2022-07-29T09:17:22.319Z,28.04
2022-07-29T09:28:21.007Z,27.77
2022-07-29T09:39:20.651Z,27.60
2022-07-29T09:50:20.758Z,27.61
2022-07-29T10:01:17.489Z,27.95
2022-07-29T10:12:18.783Z,28.11
2022-07-29T10:23:18.077Z,27.38
2022-07-29T10:34:17.923Z,26.69
2022-07-29T10:45:18.162Z,26.38
2022-07-29T10:56:16.057Z,27.17
2022-07-29T11:07:10.850Z,27.73
2022-07-29T11:18:04.813Z,28.63
2022-07-29T11:29:02.404Z,29.77
2022-07-29T11:40:02.069Z,30.81
2022-07-29T11:50:51.602Z,33.98
2022-07-29T12:01:51.646Z,30.30
2022-07-29T12:12:41.773Z,28.02
2022-07-29T12:23:19.693Z,28.02
2022-07-29T12:34:10.840Z,28.56
2022-07-29T12:45:05.257Z,29.00
2022-07-29T12:55:43.469Z,29.13
2022-07-29T13:06:36.330Z,28.35
2022-07-29T13:17:27.611Z,27.58
2022-07-29T13:28:32.249Z,28.65
2022-07-29T13:39:16.897Z,31.27
2022-07-29T13:50:18.077Z,34.53
2022-07-29T14:01:08.127Z,31.41
2022-07-29T14:12:02.609Z,29.74
2022-07-29T14:22:56.381Z,28.73
2022-07-29T14:33:43.565Z,28.96
2022-07-29T14:44:44.810Z,28.43
2022-07-29T14:55:47.140Z,28.47
2022-07-29T15:06:46.557Z,29.13
2022-07-29T15:17:43.864Z,28.86
2022-07-29T15:28:40.690Z,28.88
2022-07-29T15:39:14.250Z,28.76
2022-07-29T15:50:13.038Z,28.56
2022-07-29T16:01:06.531Z,27.94
2022-07-29T16:12:02.526Z,27.07
2022-07-29T16:23:04.162Z,26.69
2022-07-29T16:33:58.975Z,26.98
2022-07-29T16:44:54.265Z,26.68
2022-07-29T16:55:46.652Z,26.46
2022-07-29T17:06:44.150Z,26.30
2022-07-29T17:17:39.140Z,25.84
2022-07-29T17:28:33.508Z,25.49
2022-07-29T17:39:33.049Z,25.20
2022-07-29T17:50:16.419Z,24.94
2022-07-29T18:01:13.855Z,24.80
2022-07-29T18:12:13.265Z,24.34
2022-07-29T18:23:12.642Z,24.12
2022-07-29T18:34:12.823Z,23.63
2022-07-29T18:45:12.221Z,23.56
2022-07-29T18:56:00.381Z,23.22
2022-07-29T19:06:54.717Z,23.11
2022-07-29T19:17:59.040Z,23.00
2022-07-29T19:28:59.152Z,23.07
2022-07-29T19:39:57.957Z,22.96
2022-07-29T19:50:52.999Z,22.97
2022-07-29T20:01:50.678Z,22.89
2022-07-29T20:12:43.756Z,23.15
2022-07-29T20:23:41.911Z,24.11
2022-07-29T20:34:40.359Z,23.83
2022-07-29T20:45:36.635Z,22.79
2022-07-29T20:56:26.937Z,21.92
2022-07-29T21:07:25.825Z,21.26
2022-07-29T21:18:24.509Z,21.06
2022-07-29T21:29:26.009Z,20.76
2022-07-29T21:40:26.273Z,20.71
2022-07-29T21:51:24.659Z,20.42
2022-07-29T22:02:26.976Z,20.30
2022-07-29T22:13:25.628Z,20.06
2022-07-29T22:24:25.763Z,19.87
2022-07-29T22:35:26.424Z,19.73
2022-07-29T22:46:27.591Z,19.55
2022-07-29T22:57:24.447Z,19.61
2022-07-29T23:08:24.726Z,19.57
2022-07-29T23:19:22.901Z,19.40
2022-07-29T23:29:58.402Z,19.33
2022-07-29T23:40:58.495Z,19.21
2022-07-29T23:51:59.729Z,19.25
